sensor_id;sensor_type;location;lat;lon;timestamp;pressure;altitude;pressure_sealevel;temperature;humidity
25510;BME280;13413;52.336;21.200;2023-03-25T00:01:57;99271.04;;;12.59;73.88
25510;BME280;13413;52.336;21.200;2023-03-25T00:04:58;99269.80;;;12.55;74.06
25510;BME280;13413;52.336;21.200;2023-03-25T00:07:59;99267.18;;;12.53;74.05
25510;BME280;13413;52.336;21.200;2023-03-25T00:10:55;99261.71;;;12.52;73.98
25510;BME280;13413;52.336;21.200;2023-03-25T00:13:49;99263.59;;;12.51;73.91
25510;BME280;13413;52.336;21.200;2023-03-25T00:16:43;99272.77;;;12.44;74.03
25510;BME280;13413;52.336;21.200;2023-03-25T00:19:35;99265.04;;;12.37;74.10
25510;BME280;13413;52.336;21.200;2023-03-25T00:22:27;99263.63;;;12.33;74.13
25510;BME280;13413;52.336;21.200;2023-03-25T00:31:01;99252.16;;;12.29;74.25
25510;BME280;13413;52.336;21.200;2023-03-25T00:33:55;99254.66;;;12.28;74.35
25510;BME280;13413;52.336;21.200;2023-03-25T00:36:49;99259.86;;;12.25;74.42
25510;BME280;13413;52.336;21.200;2023-03-25T00:39:44;99258.83;;;12.22;74.45
25510;BME280;13413;52.336;21.200;2023-03-25T00:42:38;99257.65;;;12.19;74.56
25510;BME280;13413;52.336;21.200;2023-03-25T00:45:32;99275.36;;;12.17;74.82
25510;BME280;13413;52.336;21.200;2023-03-25T00:48:25;99272.17;;;12.18;74.78
25510;BME280;13413;52.336;21.200;2023-03-25T00:51:20;99269.40;;;12.16;74.85
25510;BME280;13413;52.336;21.200;2023-03-25T00:54:15;99269.54;;;12.14;74.88
25510;BME280;13413;52.336;21.200;2023-03-25T00:57:08;99271.91;;;12.14;74.94
25510;BME280;13413;52.336;21.200;2023-03-25T01:00:04;99273.79;;;12.13;74.97
25510;BME280;13413;52.336;21.200;2023-03-25T01:02:58;99272.25;;;12.11;75.03
25510;BME280;13413;52.336;21.200;2023-03-25T01:05:51;99269.89;;;12.09;75.03
25510;BME280;13413;52.336;21.200;2023-03-25T01:08:45;99272.39;;;12.08;75.20
25510;BME280;13413;52.336;21.200;2023-03-25T01:11:40;99277.10;;;12.05;75.24
25510;BME280;13413;52.336;21.200;2023-03-25T01:14:35;99268.86;;;12.01;75.22
25510;BME280;13413;52.336;21.200;2023-03-25T01:17:29;99264.45;;;11.98;75.48
25510;BME280;13413;52.336;21.200;2023-03-25T01:20:23;99265.59;;;11.94;75.27
25510;BME280;13413;52.336;21.200;2023-03-25T01:23:16;99268.96;;;11.92;75.25
25510;BME280;13413;52.336;21.200;2023-03-25T01:26:11;99274.88;;;11.91;75.25
25510;BME280;13413;52.336;21.200;2023-03-25T01:29:07;99272.67;;;11.89;75.35
25510;BME280;13413;52.336;21.200;2023-03-25T01:32:02;99267.20;;;11.86;75.44
25510;BME280;13413;52.336;21.200;2023-03-25T01:34:57;99259.77;;;11.84;75.52
25510;BME280;13413;52.336;21.200;2023-03-25T01:37:51;99260.73;;;11.81;75.58
25510;BME280;13413;52.336;21.200;2023-03-25T01:40:46;99266.13;;;11.77;75.53
25510;BME280;13413;52.336;21.200;2023-03-25T01:43:40;99269.94;;;11.74;75.59
25510;BME280;13413;52.336;21.200;2023-03-25T01:46:33;99269.05;;;11.73;75.55
25510;BME280;13413;52.336;21.200;2023-03-25T01:49:29;99265.31;;;11.72;75.67
25510;BME280;13413;52.336;21.200;2023-03-25T01:52:26;99260.23;;;11.67;75.60
25510;BME280;13413;52.336;21.200;2023-03-25T01:55:23;99257.73;;;11.62;75.59
25510;BME280;13413;52.336;21.200;2023-03-25T01:58:18;99251.25;;;11.56;75.63
25510;BME280;13413;52.336;21.200;2023-03-25T02:01:14;99252.69;;;11.54;75.81
25510;BME280;13413;52.336;21.200;2023-03-25T02:04:10;99254.95;;;11.50;75.75
25510;BME280;13413;52.336;21.200;2023-03-25T02:07:05;99253.94;;;11.45;75.58
25510;BME280;13413;52.336;21.200;2023-03-25T02:09:58;99255.08;;;11.44;75.64
25510;BME280;13413;52.336;21.200;2023-03-25T02:12:54;99254.52;;;11.36;75.75
25510;BME280;13413;52.336;21.200;2023-03-25T02:16:00;99260.94;;;11.31;75.86
25510;BME280;13413;52.336;21.200;2023-03-25T02:19:09;99271.98;;;11.27;75.84
25510;BME280;13413;52.336;21.200;2023-03-25T02:22:18;99276.40;;;11.20;75.82
25510;BME280;13413;52.336;21.200;2023-03-25T02:25:35;99271.09;;;11.15;75.91
25510;BME280;13413;52.336;21.200;2023-03-25T02:28:41;99268.98;;;11.09;75.88
25510;BME280;13413;52.336;21.200;2023-03-25T02:31:55;99265.70;;;11.05;75.94
25510;BME280;13413;52.336;21.200;2023-03-25T02:35:21;99260.52;;;11.01;76.03
25510;BME280;13413;52.336;21.200;2023-03-25T02:38:27;99255.02;;;11.03;75.96
25510;BME280;13413;52.336;21.200;2023-03-25T02:41:22;99255.80;;;10.99;75.97
25510;BME280;13413;52.336;21.200;2023-03-25T02:47:08;99248.03;;;10.98;75.88
25510;BME280;13413;52.336;21.200;2023-03-25T02:50:08;99247.39;;;10.96;75.88
25510;BME280;13413;52.336;21.200;2023-03-25T02:53:05;99257.73;;;10.96;75.82
25510;BME280;13413;52.336;21.200;2023-03-25T02:56:04;99256.49;;;10.93;75.95
25510;BME280;13413;52.336;21.200;2023-03-25T02:59:01;99258.33;;;10.88;75.97
25510;BME280;13413;52.336;21.200;2023-03-25T03:01:57;99261.67;;;10.85;75.93
25510;BME280;13413;52.336;21.200;2023-03-25T03:04:59;99263.10;;;10.81;76.00
25510;BME280;13413;52.336;21.200;2023-03-25T03:08:20;99264.54;;;10.79;76.02
25510;BME280;13413;52.336;21.200;2023-03-25T03:11:18;99266.44;;;10.75;75.96
25510;BME280;13413;52.336;21.200;2023-03-25T03:14:24;99264.11;;;10.72;76.05
25510;BME280;13413;52.336;21.200;2023-03-25T03:17:26;99267.27;;;10.71;76.04
25510;BME280;13413;52.336;21.200;2023-03-25T03:20:28;99267.69;;;10.64;76.21
25510;BME280;13413;52.336;21.200;2023-03-25T03:23:31;99270.59;;;10.59;76.16
25510;BME280;13413;52.336;21.200;2023-03-25T03:26:32;99276.21;;;10.54;76.24
25510;BME280;13413;52.336;21.200;2023-03-25T03:29:34;99277.73;;;10.55;76.38
25510;BME280;13413;52.336;21.200;2023-03-25T03:32:34;99285.80;;;10.55;76.47
25510;BME280;13413;52.336;21.200;2023-03-25T03:35:32;99286.00;;;10.58;76.44
25510;BME280;13413;52.336;21.200;2023-03-25T03:38:30;99288.09;;;10.58;76.59
25510;BME280;13413;52.336;21.200;2023-03-25T03:41:26;99291.81;;;10.58;76.44
25510;BME280;13413;52.336;21.200;2023-03-25T03:44:26;99295.88;;;10.59;76.48
25510;BME280;13413;52.336;21.200;2023-03-25T03:47:26;99294.86;;;10.58;76.37
25510;BME280;13413;52.336;21.200;2023-03-25T03:50:25;99288.20;;;10.56;76.49
25510;BME280;13413;52.336;21.200;2023-03-25T03:53:25;99278.91;;;10.54;76.60
25510;BME280;13413;52.336;21.200;2023-03-25T03:56:23;99276.34;;;10.55;76.50
25510;BME280;13413;52.336;21.200;2023-03-25T03:59:26;99269.52;;;10.55;76.42
25510;BME280;13413;52.336;21.200;2023-03-25T04:02:26;99270.05;;;10.54;76.53
25510;BME280;13413;52.336;21.200;2023-03-25T04:05:22;99271.11;;;10.50;76.54
25510;BME280;13413;52.336;21.200;2023-03-25T04:08:24;99276.04;;;10.48;76.49
25510;BME280;13413;52.336;21.200;2023-03-25T04:11:21;99293.35;;;10.41;76.63
25510;BME280;13413;52.336;21.200;2023-03-25T04:14:17;99292.08;;;10.40;76.50
25510;BME280;13413;52.336;21.200;2023-03-25T04:17:11;99287.73;;;10.42;76.48
25510;BME280;13413;52.336;21.200;2023-03-25T04:20:08;99291.60;;;10.41;76.47
25510;BME280;13413;52.336;21.200;2023-03-25T04:23:04;99292.54;;;10.39;76.44
25510;BME280;13413;52.336;21.200;2023-03-25T04:25:58;99296.70;;;10.36;76.61
25510;BME280;13413;52.336;21.200;2023-03-25T04:28:52;99297.29;;;10.30;76.75
25510;BME280;13413;52.336;21.200;2023-03-25T04:31:46;99305.50;;;10.28;76.61
25510;BME280;13413;52.336;21.200;2023-03-25T04:34:41;99309.36;;;10.24;76.72
25510;BME280;13413;52.336;21.200;2023-03-25T04:37:35;99310.52;;;10.22;76.78
25510;BME280;13413;52.336;21.200;2023-03-25T04:40:29;99308.21;;;10.21;76.82
25510;BME280;13413;52.336;21.200;2023-03-25T04:43:23;99308.52;;;10.17;76.92
25510;BME280;13413;52.336;21.200;2023-03-25T04:46:18;99319.19;;;10.15;77.24
25510;BME280;13413;52.336;21.200;2023-03-25T04:49:13;99319.98;;;10.16;77.22
25510;BME280;13413;52.336;21.200;2023-03-25T04:52:10;99317.95;;;10.18;77.08
25510;BME280;13413;52.336;21.200;2023-03-25T04:55:05;99309.48;;;10.22;77.16
25510;BME280;13413;52.336;21.200;2023-03-25T04:57:57;99313.00;;;10.25;77.26
25510;BME280;13413;52.336;21.200;2023-03-25T05:06:23;99298.67;;;10.31;77.18
25510;BME280;13413;52.336;21.200;2023-03-25T05:09:19;99297.20;;;10.31;77.12
25510;BME280;13413;52.336;21.200;2023-03-25T05:12:13;99299.20;;;10.29;77.22
25510;BME280;13413;52.336;21.200;2023-03-25T05:15:28;99308.91;;;10.31;77.27
25510;BME280;13413;52.336;21.200;2023-03-25T05:18:22;99313.95;;;10.31;77.45
25510;BME280;13413;52.336;21.200;2023-03-25T05:21:16;99311.48;;;10.33;77.49
25510;BME280;13413;52.336;21.200;2023-03-25T05:24:11;99308.52;;;10.36;77.44
25510;BME280;13413;52.336;21.200;2023-03-25T05:27:05;99313.83;;;10.41;77.49
25510;BME280;13413;52.336;21.200;2023-03-25T05:29:59;99320.02;;;10.40;77.42
25510;BME280;13413;52.336;21.200;2023-03-25T05:32:53;99325.60;;;10.40;77.43
25510;BME280;13413;52.336;21.200;2023-03-25T05:35:47;99322.48;;;10.43;77.48
25510;BME280;13413;52.336;21.200;2023-03-25T05:38:41;99323.02;;;10.43;77.44
25510;BME280;13413;52.336;21.200;2023-03-25T05:41:35;99324.39;;;10.44;77.56
25510;BME280;13413;52.336;21.200;2023-03-25T05:44:29;99330.84;;;10.46;77.51
25510;BME280;13413;52.336;21.200;2023-03-25T05:47:24;99329.52;;;10.47;77.54
25510;BME280;13413;52.336;21.200;2023-03-25T05:50:17;99335.02;;;10.51;77.59
25510;BME280;13413;52.336;21.200;2023-03-25T05:53:11;99339.23;;;10.52;77.47
25510;BME280;13413;52.336;21.200;2023-03-25T05:56:07;99335.64;;;10.53;77.56
25510;BME280;13413;52.336;21.200;2023-03-25T05:59:01;99334.34;;;10.54;77.50
25510;BME280;13413;52.336;21.200;2023-03-25T06:01:55;99335.93;;;10.59;77.57
25510;BME280;13413;52.336;21.200;2023-03-25T06:04:49;99338.97;;;10.62;77.43
25510;BME280;13413;52.336;21.200;2023-03-25T06:07:44;99338.16;;;10.66;77.51
25510;BME280;13413;52.336;21.200;2023-03-25T06:10:37;99344.25;;;10.68;77.51
25510;BME280;13413;52.336;21.200;2023-03-25T06:13:31;99344.13;;;10.72;77.53
25510;BME280;13413;52.336;21.200;2023-03-25T06:16:26;99348.13;;;10.73;77.59
25510;BME280;13413;52.336;21.200;2023-03-25T06:22:12;99341.23;;;10.75;77.71
25510;BME280;13413;52.336;21.200;2023-03-25T06:25:08;99338.84;;;10.78;77.60
25510;BME280;13413;52.336;21.200;2023-03-25T06:28:02;99340.67;;;10.81;77.65
25510;BME280;13413;52.336;21.200;2023-03-25T06:30:56;99339.66;;;10.84;77.63
25510;BME280;13413;52.336;21.200;2023-03-25T06:33:51;99339.13;;;10.86;77.53
25510;BME280;13413;52.336;21.200;2023-03-25T06:36:45;99335.39;;;10.92;77.64
25510;BME280;13413;52.336;21.200;2023-03-25T06:39:39;99327.23;;;11.00;77.60
25510;BME280;13413;52.336;21.200;2023-03-25T06:42:33;99321.60;;;11.05;77.44
25510;BME280;13413;52.336;21.200;2023-03-25T06:45:27;99321.73;;;11.11;77.40
25510;BME280;13413;52.336;21.200;2023-03-25T06:48:21;99329.92;;;11.15;77.27
25510;BME280;13413;52.336;21.200;2023-03-25T06:51:15;99337.31;;;11.21;77.41
25510;BME280;13413;52.336;21.200;2023-03-25T06:54:09;99341.97;;;11.26;77.25
25510;BME280;13413;52.336;21.200;2023-03-25T06:57:04;99339.77;;;11.27;77.14
25510;BME280;13413;52.336;21.200;2023-03-25T06:59:58;99336.59;;;11.27;77.26
25510;BME280;13413;52.336;21.200;2023-03-25T07:02:52;99335.29;;;11.30;77.14
25510;BME280;13413;52.336;21.200;2023-03-25T07:05:47;99335.89;;;11.36;77.14
25510;BME280;13413;52.336;21.200;2023-03-25T07:08:41;99334.45;;;11.38;77.20
25510;BME280;13413;52.336;21.200;2023-03-25T07:11:36;99338.45;;;11.43;77.20
25510;BME280;13413;52.336;21.200;2023-03-25T07:17:22;99331.25;;;11.53;77.17
25510;BME280;13413;52.336;21.200;2023-03-25T07:25:49;99326.98;;;11.70;76.59
25510;BME280;13413;52.336;21.200;2023-03-25T07:28:44;99321.70;;;11.70;76.47
25510;BME280;13413;52.336;21.200;2023-03-25T07:31:37;99320.69;;;11.71;76.29
25510;BME280;13413;52.336;21.200;2023-03-25T07:34:31;99319.69;;;11.74;76.38
25510;BME280;13413;52.336;21.200;2023-03-25T07:37:25;99325.11;;;11.79;76.22
25510;BME280;13413;52.336;21.200;2023-03-25T07:40:19;99323.91;;;11.79;75.92
25510;BME280;13413;52.336;21.200;2023-03-25T07:43:14;99331.06;;;11.82;76.00
25510;BME280;13413;52.336;21.200;2023-03-25T07:46:07;99327.01;;;11.85;76.04
25510;BME280;13413;52.336;21.200;2023-03-25T07:49:01;99325.09;;;11.94;76.20
25510;BME280;13413;52.336;21.200;2023-03-25T07:51:55;99332.10;;;12.05;75.85
25510;BME280;13413;52.336;21.200;2023-03-25T07:54:49;99335.82;;;12.14;75.76
25510;BME280;13413;52.336;21.200;2023-03-25T07:57:44;99333.70;;;12.22;75.27
25510;BME280;13413;52.336;21.200;2023-03-25T08:00:40;99332.29;;;12.20;74.94
25510;BME280;13413;52.336;21.200;2023-03-25T08:03:35;99327.59;;;12.18;74.99
25510;BME280;13413;52.336;21.200;2023-03-25T08:06:28;99322.02;;;12.26;75.19
25510;BME280;13413;52.336;21.200;2023-03-25T08:09:23;99322.48;;;12.36;74.92
25510;BME280;13413;52.336;21.200;2023-03-25T08:12:17;99322.13;;;12.41;74.28
25510;BME280;13413;52.336;21.200;2023-03-25T08:15:12;99326.73;;;12.46;74.15
25510;BME280;13413;52.336;21.200;2023-03-25T08:18:06;99320.77;;;12.51;73.86
25510;BME280;13413;52.336;21.200;2023-03-25T08:20:59;99322.02;;;12.56;73.52
25510;BME280;13413;52.336;21.200;2023-03-25T08:23:55;99324.30;;;12.61;73.40
25510;BME280;13413;52.336;21.200;2023-03-25T08:26:49;99325.79;;;12.73;73.42
25510;BME280;13413;52.336;21.200;2023-03-25T08:29:43;99324.71;;;12.87;73.36
25510;BME280;13413;52.336;21.200;2023-03-25T08:32:37;99329.91;;;13.05;72.91
25510;BME280;13413;52.336;21.200;2023-03-25T08:35:32;99329.19;;;13.28;72.98
25510;BME280;13413;52.336;21.200;2023-03-25T08:38:26;99331.23;;;13.45;71.89
25510;BME280;13413;52.336;21.200;2023-03-25T08:41:21;99328.69;;;13.63;71.47
25510;BME280;13413;52.336;21.200;2023-03-25T08:44:15;99331.45;;;13.82;71.53
25510;BME280;13413;52.336;21.200;2023-03-25T08:47:10;99337.27;;;14.06;70.86
25510;BME280;13413;52.336;21.200;2023-03-25T08:50:05;99339.04;;;14.04;69.50
25510;BME280;13413;52.336;21.200;2023-03-25T08:52:58;99338.00;;;13.98;69.62
25510;BME280;13413;52.336;21.200;2023-03-25T08:55:54;99327.93;;;14.04;69.79
25510;BME280;13413;52.336;21.200;2023-03-25T09:01:41;99326.10;;;14.20;67.86
25510;BME280;13413;52.336;21.200;2023-03-25T09:04:34;99330.48;;;14.26;68.13
25510;BME280;13413;52.336;21.200;2023-03-25T09:07:28;99331.59;;;14.45;68.35
25510;BME280;13413;52.336;21.200;2023-03-25T09:10:22;99328.03;;;14.65;67.08
25510;BME280;13413;52.336;21.200;2023-03-25T09:13:16;99315.66;;;14.74;67.11
25510;BME280;13413;52.336;21.200;2023-03-25T09:16:11;99312.57;;;14.92;66.61
25510;BME280;13413;52.336;21.200;2023-03-25T09:19:05;99309.08;;;15.12;65.72
25510;BME280;13413;52.336;21.200;2023-03-25T09:21:58;99311.09;;;15.36;65.37
25510;BME280;13413;52.336;21.200;2023-03-25T09:24:52;99312.70;;;15.61;65.05
25510;BME280;13413;52.336;21.200;2023-03-25T09:27:46;99311.41;;;15.85;64.03
25510;BME280;13413;52.336;21.200;2023-03-25T09:30:40;99311.27;;;15.83;62.73
25510;BME280;13413;52.336;21.200;2023-03-25T09:33:35;99310.65;;;15.85;62.53
25510;BME280;13413;52.336;21.200;2023-03-25T09:36:28;99306.83;;;15.88;61.70
25510;BME280;13413;52.336;21.200;2023-03-25T09:47:23;99294.68;;;16.28;59.71
25510;BME280;13413;52.336;21.200;2023-03-25T09:50:19;99296.00;;;16.15;60.19
25510;BME280;13413;52.336;21.200;2023-03-25T09:53:21;99296.42;;;16.26;58.97
25510;BME280;13413;52.336;21.200;2023-03-25T09:56:18;99298.81;;;16.33;58.59
25510;BME280;13413;52.336;21.200;2023-03-25T09:59:16;99295.39;;;16.31;57.46
25510;BME280;13413;52.336;21.200;2023-03-25T10:02:21;99292.29;;;16.44;57.90
25510;BME280;13413;52.336;21.200;2023-03-25T10:05:28;99290.36;;;16.79;57.67
25510;BME280;13413;52.336;21.200;2023-03-25T10:08:36;99291.37;;;16.78;57.26
25510;BME280;13413;52.336;21.200;2023-03-25T10:11:41;99286.94;;;16.76;57.21
25510;BME280;13413;52.336;21.200;2023-03-25T10:14:42;99286.15;;;16.73;57.29
25510;BME280;13413;52.336;21.200;2023-03-25T10:17:57;99287.23;;;16.55;57.06
25510;BME280;13413;52.336;21.200;2023-03-25T10:21:00;99284.20;;;16.41;57.53
25510;BME280;13413;52.336;21.200;2023-03-25T10:24:03;99283.77;;;16.36;56.67
25510;BME280;13413;52.336;21.200;2023-03-25T10:27:18;99283.53;;;16.32;56.31
25510;BME280;13413;52.336;21.200;2023-03-25T10:30:16;99288.48;;;16.36;56.37
25510;BME280;13413;52.336;21.200;2023-03-25T10:33:22;99292.02;;;16.39;55.69
25510;BME280;13413;52.336;21.200;2023-03-25T10:36:20;99289.02;;;16.55;55.63
25510;BME280;13413;52.336;21.200;2023-03-25T10:39:22;99281.80;;;16.54;55.16
25510;BME280;13413;52.336;21.200;2023-03-25T10:42:26;99274.15;;;16.50;55.23
25510;BME280;13413;52.336;21.200;2023-03-25T10:45:23;99276.29;;;16.58;55.43
25510;BME280;13413;52.336;21.200;2023-03-25T10:48:21;99275.95;;;16.76;55.21
25510;BME280;13413;52.336;21.200;2023-03-25T10:51:18;99278.61;;;16.83;55.31
25510;BME280;13413;52.336;21.200;2023-03-25T10:54:13;99277.98;;;16.73;54.41
25510;BME280;13413;52.336;21.200;2023-03-25T10:57:09;99275.64;;;16.57;54.02
25510;BME280;13413;52.336;21.200;2023-03-25T11:00:13;99277.45;;;16.39;54.11
25510;BME280;13413;52.336;21.200;2023-03-25T11:03:16;99269.49;;;16.50;54.21
25510;BME280;13413;52.336;21.200;2023-03-25T11:06:21;99266.59;;;16.83;54.34
25510;BME280;13413;52.336;21.200;2023-03-25T11:09:23;99266.68;;;16.88;53.74
25510;BME280;13413;52.336;21.200;2023-03-25T11:12:20;99269.80;;;16.88;53.49
25510;BME280;13413;52.336;21.200;2023-03-25T11:15:17;99265.89;;;17.09;52.92
25510;BME280;13413;52.336;21.200;2023-03-25T11:18:18;99254.31;;;17.06;52.92
25510;BME280;13413;52.336;21.200;2023-03-25T11:21:14;99251.08;;;17.28;52.93
25510;BME280;13413;52.336;21.200;2023-03-25T11:24:10;99243.30;;;17.43;52.59
25510;BME280;13413;52.336;21.200;2023-03-25T11:27:07;99248.70;;;17.30;52.60
25510;BME280;13413;52.336;21.200;2023-03-25T11:30:04;99242.71;;;17.06;53.04
25510;BME280;13413;52.336;21.200;2023-03-25T11:35:17;99240.30;;;16.89;53.03
25510;BME280;13413;52.336;21.200;2023-03-25T11:38:15;99233.20;;;16.85;52.87
25510;BME280;13413;52.336;21.200;2023-03-25T11:41:13;99226.35;;;16.78;53.43
25510;BME280;13413;52.336;21.200;2023-03-25T11:44:06;99222.46;;;16.77;53.35
25510;BME280;13413;52.336;21.200;2023-03-25T11:47:02;99217.61;;;16.68;53.63
25510;BME280;13413;52.336;21.200;2023-03-25T11:49:55;99216.53;;;16.64;53.77
25510;BME280;13413;52.336;21.200;2023-03-25T11:52:52;99212.05;;;16.69;53.86
25510;BME280;13413;52.336;21.200;2023-03-25T11:55:49;99204.79;;;16.87;53.53
25510;BME280;13413;52.336;21.200;2023-03-25T11:58:43;99206.29;;;17.23;53.04
25510;BME280;13413;52.336;21.200;2023-03-25T12:01:39;99204.63;;;17.65;52.20
25510;BME280;13413;52.336;21.200;2023-03-25T12:04:32;99205.92;;;17.88;51.18
25510;BME280;13413;52.336;21.200;2023-03-25T12:07:24;99201.77;;;18.00;49.97
25510;BME280;13413;52.336;21.200;2023-03-25T12:10:37;99198.21;;;18.29;49.60
25510;BME280;13413;52.336;21.200;2023-03-25T12:13:44;99192.73;;;18.51;49.40
25510;BME280;13413;52.336;21.200;2023-03-25T12:16:46;99189.15;;;18.41;48.11
25510;BME280;13413;52.336;21.200;2023-03-25T12:19:47;99184.87;;;18.15;47.84
25510;BME280;13413;52.336;21.200;2023-03-25T12:22:52;99183.77;;;18.22;46.51
25510;BME280;13413;52.336;21.200;2023-03-25T12:25:55;99184.64;;;18.18;45.95
25510;BME280;13413;52.336;21.200;2023-03-25T12:29:02;99180.36;;;18.10;46.10
25510;BME280;13413;52.336;21.200;2023-03-25T12:32:10;99180.81;;;18.17;45.53
25510;BME280;13413;52.336;21.200;2023-03-25T12:35:20;99170.20;;;18.30;45.74
25510;BME280;13413;52.336;21.200;2023-03-25T12:38:32;99158.13;;;18.44;45.91
25510;BME280;13413;52.336;21.200;2023-03-25T12:41:32;99152.68;;;18.57;45.67
25510;BME280;13413;52.336;21.200;2023-03-25T12:44:39;99153.33;;;18.65;45.12
25510;BME280;13413;52.336;21.200;2023-03-25T12:47:36;99155.23;;;18.48;44.95
25510;BME280;13413;52.336;21.200;2023-03-25T12:50:38;99154.98;;;18.71;45.38
25510;BME280;13413;52.336;21.200;2023-03-25T12:53:46;99149.71;;;18.69;44.39
25510;BME280;13413;52.336;21.200;2023-03-25T12:56:48;99146.63;;;18.56;44.68
25510;BME280;13413;52.336;21.200;2023-03-25T12:59:52;99137.80;;;18.46;45.02
25510;BME280;13413;52.336;21.200;2023-03-25T13:03:11;99140.89;;;18.14;45.37
25510;BME280;13413;52.336;21.200;2023-03-25T13:06:17;99140.17;;;17.85;45.81
25510;BME280;13413;52.336;21.200;2023-03-25T13:09:14;99135.96;;;17.60;46.25
25510;BME280;13413;52.336;21.200;2023-03-25T13:12:14;99138.45;;;17.45;46.74
25510;BME280;13413;52.336;21.200;2023-03-25T13:15:17;99136.27;;;17.29;47.21
25510;BME280;13413;52.336;21.200;2023-03-25T13:18:10;99134.89;;;17.18;47.42
25510;BME280;13413;52.336;21.200;2023-03-25T13:27:09;99130.33;;;16.79;48.30
25510;BME280;13413;52.336;21.200;2023-03-25T13:30:06;99133.29;;;16.73;48.58
25510;BME280;13413;52.336;21.200;2023-03-25T13:33:12;99133.95;;;16.67;48.80
25510;BME280;13413;52.336;21.200;2023-03-25T13:36:16;99131.91;;;16.51;49.06
25510;BME280;13413;52.336;21.200;2023-03-25T13:39:14;99137.64;;;16.35;50.42
25510;BME280;13413;52.336;21.200;2023-03-25T13:42:14;99142.26;;;16.02;52.66
25510;BME280;13413;52.336;21.200;2023-03-25T13:45:15;99145.32;;;15.66;53.85
25510;BME280;13413;52.336;21.200;2023-03-25T13:48:13;99143.61;;;15.36;55.13
25510;BME280;13413;52.336;21.200;2023-03-25T13:51:10;99138.34;;;15.19;55.34
25510;BME280;13413;52.336;21.200;2023-03-25T13:54:07;99126.42;;;15.14;55.99
25510;BME280;13413;52.336;21.200;2023-03-25T14:07:55;99121.20;;;15.32;56.82
25510;BME280;13413;52.336;21.200;2023-03-25T14:11:01;99116.52;;;15.41;57.05
25510;BME280;13413;52.336;21.200;2023-03-25T14:14:07;99111.35;;;15.50;57.07
25510;BME280;13413;52.336;21.200;2023-03-25T14:17:03;99115.34;;;15.49;57.19
25510;BME280;13413;52.336;21.200;2023-03-25T14:19:56;99125.45;;;15.49;57.74
25510;BME280;13413;52.336;21.200;2023-03-25T14:22:56;99121.98;;;15.51;57.75
25510;BME280;13413;52.336;21.200;2023-03-25T14:25:54;99118.59;;;15.52;57.73
25510;BME280;13413;52.336;21.200;2023-03-25T14:28:49;99118.06;;;15.59;57.03
25510;BME280;13413;52.336;21.200;2023-03-25T14:32:02;99121.45;;;15.62;56.27
25510;BME280;13413;52.336;21.200;2023-03-25T14:41:58;99122.62;;;15.75;56.25
25510;BME280;13413;52.336;21.200;2023-03-25T14:44:53;99121.88;;;15.90;55.94
25510;BME280;13413;52.336;21.200;2023-03-25T14:48:17;99126.15;;;15.87;55.45
25510;BME280;13413;52.336;21.200;2023-03-25T14:51:45;99125.20;;;15.82;55.43
25510;BME280;13413;52.336;21.200;2023-03-25T14:54:42;99124.35;;;15.88;55.76
25510;BME280;13413;52.336;21.200;2023-03-25T14:57:42;99119.85;;;15.94;55.61
25510;BME280;13413;52.336;21.200;2023-03-25T15:00:48;99122.00;;;15.94;55.46
25510;BME280;13413;52.336;21.200;2023-03-25T15:06:39;99120.89;;;15.66;54.20
25510;BME280;13413;52.336;21.200;2023-03-25T15:09:38;99124.98;;;15.62;53.95
25510;BME280;13413;52.336;21.200;2023-03-25T15:12:37;99121.08;;;15.62;54.13
25510;BME280;13413;52.336;21.200;2023-03-25T15:19:13;99124.48;;;15.42;53.82
25510;BME280;13413;52.336;21.200;2023-03-25T15:22:20;99123.23;;;15.32;53.95
25510;BME280;13413;52.336;21.200;2023-03-25T15:25:16;99126.58;;;15.28;54.24
25510;BME280;13413;52.336;21.200;2023-03-25T15:28:17;99135.13;;;15.16;54.14
25510;BME280;13413;52.336;21.200;2023-03-25T15:31:38;99147.25;;;14.99;53.98
25510;BME280;13413;52.336;21.200;2023-03-25T15:34:50;99154.05;;;14.68;53.74
25510;BME280;13413;52.336;21.200;2023-03-25T15:37:53;99155.41;;;14.45;53.60
25510;BME280;13413;52.336;21.200;2023-03-25T15:46:49;99167.85;;;13.88;53.85
25510;BME280;13413;52.336;21.200;2023-03-25T15:57:00;99172.74;;;13.47;55.02
25510;BME280;13413;52.336;21.200;2023-03-25T16:00:01;99170.08;;;13.36;55.88
25510;BME280;13413;52.336;21.200;2023-03-25T16:03:00;99171.48;;;13.23;56.55
25510;BME280;13413;52.336;21.200;2023-03-25T16:05:57;99174.23;;;13.11;56.99
25510;BME280;13413;52.336;21.200;2023-03-25T16:08:52;99180.02;;;13.01;57.48
25510;BME280;13413;52.336;21.200;2023-03-25T16:11:48;99174.75;;;12.86;57.87
25510;BME280;13413;52.336;21.200;2023-03-25T16:14:43;99171.13;;;12.75;58.21
25510;BME280;13413;52.336;21.200;2023-03-25T16:17:39;99166.51;;;12.66;58.33
25510;BME280;13413;52.336;21.200;2023-03-25T16:20:33;99161.80;;;12.60;58.73
25510;BME280;13413;52.336;21.200;2023-03-25T16:23:30;99159.95;;;12.56;58.89
25510;BME280;13413;52.336;21.200;2023-03-25T16:26:39;99150.66;;;12.51;59.58
25510;BME280;13413;52.336;21.200;2023-03-25T16:29:34;99168.94;;;12.48;59.73
25510;BME280;13413;52.336;21.200;2023-03-25T16:32:34;99171.67;;;12.48;60.03
25510;BME280;13413;52.336;21.200;2023-03-25T16:35:28;99170.48;;;12.42;60.28
25510;BME280;13413;52.336;21.200;2023-03-25T16:38:23;99176.02;;;12.37;60.67
25510;BME280;13413;52.336;21.200;2023-03-25T16:41:17;99170.77;;;12.32;60.66
25510;BME280;13413;52.336;21.200;2023-03-25T16:44:14;99173.34;;;12.26;60.99
25510;BME280;13413;52.336;21.200;2023-03-25T16:47:12;99179.99;;;12.23;61.05
25510;BME280;13413;52.336;21.200;2023-03-25T16:50:12;99183.74;;;12.19;61.15
25510;BME280;13413;52.336;21.200;2023-03-25T16:53:09;99186.88;;;12.17;61.39